Friday, February 23, 2018, 8:03 PM GMT
Back to Local

CYQB, Quebec, Que

Location: , , Canada Lat: 46.8
Local Time: 8:03 PM GMT (20:03 GMT) Lon: -71.383
Time Zone: GMT Elev: 229 ft

Show me the last for .
Show Decoded

2018-02-23 19:00 METAR CYQB 231900Z 05007KT 30SM OVC100 M03/M12 A3035 RMK AC8 PRESFR SLP285 =
2018-02-23 18:00 METAR CYQB 231800Z 05007KT 30SM BKN080 OVC260 M05/M12 A3043 RMK AC7CS1 PRESFR
                 SLP312 =
2018-02-23 17:00 METAR CYQB 231700Z 06005KT 20SM SCT085 OVC240 M06/M13 A3051 RMK AC4CI4 SLP341 =
2018-02-23 16:00 METAR CYQB 231600Z 05007KT 15SM FEW110 OVC240 M08/M13 A3056 RMK AC1CI8 AC TR
                 HAZY PRESFR SLP357 =
2018-02-23 15:00 METAR CYQB 231500Z VRB02KT 20SM FEW170 BKN240 M10/M15 A3064 RMK AC1CI7 AC TR
                 HAZY SLP384 =
2018-02-23 14:00 METAR CYQB 231400Z 05006KT 20SM FEW090 BKN240 M12/M16 A3066 RMK AC1CI6 AC TR
                 HAZY SLP390 =
2018-02-23 13:00 METAR CYQB 231300Z 04002KT 20SM FEW090 BKN240 M14/M18 A3069 RMK AC1CI5 AC TR
                 SLP402 =
2018-02-23 12:00 METAR CYQB 231200Z VRB02KT 20SM VCBLDU SCT240 M18/M20 A3070 RMK CI3 SLP404 =
2018-02-23 11:00 METAR CYQB 231100Z 00000KT 15SM FEW240 M17/M20 A3071 RMK CI1 CI TR SLP407 =
2018-02-23 10:00 METAR CYQB 231000Z 05003KT 15SM SKC M17/M19 A3072 RMK SLP413 =
2018-02-23 09:00 METAR CYQB 230900Z 00000KT 15SM SKC M17/M19 A3072 RMK SLP412 =
2018-02-23 08:00 METAR CYQB 230800Z 23002KT 15SM SKC M16/M17 A3072 RMK SLP412 =
2018-02-23 07:00 METAR CYQB 230700Z 00000KT 15SM SKC M16/M18 A3074 RMK SLP419 =
2018-02-23 06:00 METAR CYQB 230600Z 29003KT 15SM SKC M15/M16 A3074 RMK SLP419 =
2018-02-23 05:00 METAR CYQB 230500Z 00000KT 15SM SKC M14/M16 A3074 RMK SLP418 =
2018-02-23 04:00 METAR CYQB 230400Z 31003KT 15SM SKC M13/M15 A3075 RMK SLP420 =
2018-02-23 03:00 METAR CYQB 230300Z 23003KT 15SM SKC M10/M14 A3072 RMK SLP409 =
2018-02-23 02:00 METAR CYQB 230200Z 22006KT 15SM SKC M10/M14 A3073 RMK SLP414 =
2018-02-23 01:00 METAR CYQB 230100Z 24008KT 15SM SKC M08/M14 A3072 RMK SLP411 =
2018-02-23 00:00 METAR CYQB 230000Z 23007KT 15SM FEW200 M09/M13 A3072 RMK CI1 CI TR SLP412 =
2018-02-22 23:00 METAR CYQB 222300Z 24012G17KT 15SM FEW090 FEW200 M07/M13 A3071 RMK AC1CS1 AC TR
                 CS TR SLP406 =
2018-02-22 22:00 METAR CYQB 222200Z 22015KT 30SM FEW090 FEW200 M07/M13 A3069 RMK AC1CS1 SLP400 =
2018-02-22 21:00 METAR CYQB 222100Z 23013G18KT 30SM SCT200 M06/M13 A3068 RMK CS3 SLP396 =

Support USWX by starting your Amazon purchase here.